Flight Track Log - Related Links

Times and Time Zones

All times are in EST time to prevent confusion due to time zone crossing. See the BLS384 flight status page for this flight to view local times or setup timezone preferences in your user account.

Time Position Orientation Groundspeed Altitude Reporting Facility
EST Latitude Longitude Course Direction KTS MPH feet Rate Location/Type
Wed 07:28:48 PM 46.4000 -79.4167 54° Northeast 160 184 5,600  Level Montreal Center
Wed 07:29:48 PM 46.4000 -79.3500 90° East 180 207 8,100 2,450 Climbing Montreal Center
Wed 07:30:48 PM 46.3667 -79.2667 120° Southeast 200 230 10,500 2,000 Climbing Montreal Center
Wed 07:31:48 PM 46.3500 -79.2000 110° East 220 253 12,100 1,600 Climbing Montreal Center
Wed 07:32:48 PM 46.3333 -79.1000 104° East 230 265 13,700 1,350 Climbing Montreal Center
Wed 07:33:48 PM 46.3000 -79.0000 116° Southeast 240 276 14,800 1,200 Climbing Montreal Center
Wed 07:34:48 PM 46.2833 -78.9000 104° East 250 288 16,100 1,200 Climbing Montreal Center
Wed 07:35:48 PM 46.2667 -78.8000 104° East 260 299 17,200 1,050 Climbing Montreal Center
Wed 07:36:48 PM 46.2500 -78.7000 104° East 260 299 18,200 850 Climbing Montreal Center
Wed 07:37:48 PM 46.2167 -78.6167 120° Southeast 270 311 18,900 400 Climbing Montreal Center
Wed 07:38:48 PM 46.2000 -78.5167 104° East 280 322 19,000 50 Climbing Montreal Center
Wed 07:39:48 PM 46.1667 -78.3833 110° East 290 334 19,000  Level Montreal Center
Wed 07:40:48 PM 46.1333 -78.2667 112° Southeast 300 345 19,000  Level Montreal Center
Wed 07:41:48 PM 46.1167 -78.1500 102° East 300 345 19,000 -50 Level Montreal Center
Wed 07:42:48 PM 46.1000 -78.0500 103° East 300 345 18,900  Descending Montreal Center
Wed 07:43:48 PM 46.0833 -77.9333 102° East 300 345 19,000 50 Climbing Montreal Center
Wed 07:44:48 PM 46.0500 -77.8000 110° East 300 345 19,000  Level Montreal Center
Wed 07:45:48 PM 46.0167 -77.7000 116° Southeast 300 345 19,000  Level Montreal Center
Wed 07:46:48 PM 45.9833 -77.5833 112° Southeast 300 345 19,000  Level Montreal Center
Wed 07:47:48 PM 45.9500 -77.4667 112° Southeast 300 345 19,000  Level Montreal Center
Wed 07:48:48 PM 45.9167 -77.3333 110° East 310 357 19,000  Level Montreal Center
Wed 07:49:48 PM 45.8833 -77.2500 120° Southeast 310 357 19,000  Level Montreal Center
Wed 07:50:48 PM 45.8500 -77.1167 110° East 300 345 19,000  Level Montreal Center
Wed 07:51:48 PM 45.8167 -77.0000 112° Southeast 300 345 19,000 -50 Level Montreal Center
Wed 07:52:48 PM 45.7833 -76.9000 116° Southeast 310 357 18,900 -50 Descending Montreal Center
Wed 07:53:48 PM 45.7500 -76.7833 112° Southeast 300 345 18,900 -550 Level Montreal Center
Wed 07:54:48 PM 45.7167 -76.6667 112° Southeast 310 357 17,800 -1,350 Descending Montreal Center
Wed 07:55:48 PM 45.7167 -76.5500 90° East 320 368 16,200 -1,800 Descending Montreal Center
Wed 07:56:48 PM 45.6833 -76.4167 110° East 320 368 14,200 -1,750 Descending Montreal Center
Wed 07:57:48 PM 45.6667 -76.3000 102° East 310 357 12,700 -1,500 Descending Montreal Center
Wed 07:58:48 PM 45.6333 -76.2000 115° Southeast 290 334 11,200 -1,550 Descending Montreal Center
Wed 07:59:48 PM 45.6000 -76.0833 112° Southeast 280 322 9,600 -1,400 Descending Montreal Center
Wed 08:00:48 PM 45.5667 -76.0000 120° Southeast 270 311 8,400 -1,100 Descending Montreal Center
Wed 08:01:48 PM 45.5500 -75.9000 103° East 270 311 7,400 -850 Descending Montreal Center
Wed 08:02:48 PM 45.5167 -75.8000 115° Southeast 260 299 6,700 -650 Descending Montreal Center
Wed 08:03:48 PM 45.5000 -75.7000 103° East 240 276 6,100 -750 Descending Montreal Center
Wed 08:04:48 PM 45.4833 -75.6333 110° East 200 230 5,200 -1,050 Descending Montreal Center
Wed 08:05:48 PM 45.4333 -75.5667 137° Southeast 190 219 4,000 -1,100 Descending Montreal Center
Wed 08:06:48 PM 45.4000 -75.5167 134° Southeast 170 196 3,000 -800 Descending Montreal Center
Wed 08:07:48 PM 45.3500 -75.5333 193° South 170 196 2,400 -750 Descending Montreal Center
Wed 08:08:48 PM 45.3333 -75.5833 245° Southwest 150 173 1,500 -850 Descending Montreal Center
Wed 08:09:48 PM 45.3167 -75.6333 245° Southwest 120 138 700 -550 Descending Montreal Center
Wed 08:10:48 PM 45.3000 -75.6667 235° Southwest 90 104 400 -300 Descending Montreal Center

Login

Don't have an account? Register now (free) for customized features, flight alerts, and more!